Time;durP1;ratioP1;P1;durP2;ratioP2;P2;SDS_P1;SDS_P2;PMS_P1;PMS_P2;Temp;Humidity;BMP_temperature;BMP_pressure;BME280_temperature;BME280_humidity;BME280_pressure;Samples;Min_cycle;Max_cycle;Signal;HPM_P1;HPM_P2
2022/08/26 00:00:56;;;;;;;32.53;30.33;;;;;;;;;;5094072;28;20408;-82
2022/08/26 00:03:23;;;;;;;32.93;30.63;;;;;;;;;;5093601;28;20451;-81
2022/08/26 00:05:51;;;;;;;32.93;30.10;;;;;;;;;;5094514;28;20411;-81
2022/08/26 00:08:20;;;;;;;31.07;28.87;;;;;;;;;;5093797;28;20444;-81
2022/08/26 00:10:47;;;;;;;35.87;29.00;;;;;;;;;;5091394;28;20462;-81
2022/08/26 00:13:15;;;;;;;30.10;28.07;;;;;;;;;;5093664;28;20440;-81
2022/08/26 00:15:45;;;;;;;33.10;30.70;;;;;;;;;;5093823;28;20451;-81
2022/08/26 00:18:13;;;;;;;30.97;28.80;;;;;;;;;;5093350;28;20441;-82
2022/08/26 00:20:40;;;;;;;31.80;29.37;;;;;;;;;;5093583;28;20418;-82
2022/08/26 00:23:08;;;;;;;32.00;29.80;;;;;;;;;;5093660;28;20423;-81
2022/08/26 00:25:35;;;;;;;32.20;29.80;;;;;;;;;;5093509;28;20418;-82
2022/08/26 00:28:02;;;;;;;31.57;29.53;;;;;;;;;;5093505;28;20441;-81
2022/08/26 00:30:31;;;;;;;31.60;29.47;;;;;;;;;;5093579;28;20427;-82
2022/08/26 00:32:59;;;;;;;32.07;29.47;;;;;;;;;;5093398;28;20934;-81
2022/08/26 00:35:28;;;;;;;31.10;28.93;;;;;;;;;;5093443;28;20534;-80
2022/08/26 00:37:55;;;;;;;31.57;29.47;;;;;;;;;;5093218;28;20476;-82
2022/08/26 00:40:24;;;;;;;31.17;28.80;;;;;;;;;;5093273;28;20456;-82
2022/08/26 00:42:52;;;;;;;31.77;29.63;;;;;;;;;;5091931;28;20482;-82
2022/08/26 00:45:19;;;;;;;31.17;28.73;;;;;;;;;;5093204;28;20410;-82
2022/08/26 00:47:48;;;;;;;31.10;28.73;;;;;;;;;;5093376;28;20441;-82
2022/08/26 00:50:19;;;;;;;30.70;28.50;;;;;;;;;;5093168;28;20425;-82
2022/08/26 00:52:46;;;;;;;29.83;27.73;;;;;;;;;;5092949;28;20976;-81
2022/08/26 00:55:16;;;;;;;29.63;27.53;;;;;;;;;;5092781;28;20551;-82
2022/08/26 00:57:44;;;;;;;30.53;27.87;;;;;;;;;;5093094;28;20508;-82
2022/08/26 01:00:14;;;;;;;32.60;30.30;;;;;;;;;;5093116;28;20415;-82
2022/08/26 01:02:42;;;;;;;30.63;28.30;;;;;;;;;;5093218;28;20415;-82
2022/08/26 01:05:10;;;;;;;29.10;26.97;;;;;;;;;;5092635;28;20480;-82
2022/08/26 01:07:39;;;;;;;30.90;28.40;;;;;;;;;;5093208;28;20457;-81
2022/08/26 01:10:09;;;;;;;29.60;27.40;;;;;;;;;;5093073;28;20502;-82
2022/08/26 01:12:38;;;;;;;30.43;28.10;;;;;;;;;;5093078;28;20512;-81
2022/08/26 01:15:06;;;;;;;32.33;29.83;;;;;;;;;;5093011;28;20803;-82
2022/08/26 01:17:33;;;;;;;31.73;29.33;;;;;;;;;;5092765;28;20423;-82
2022/08/26 01:20:04;;;;;;;31.80;29.60;;;;;;;;;;5092919;28;20464;-81
2022/08/26 01:22:34;;;;;;;29.90;27.73;;;;;;;;;;5075187;28;20448;-82
2022/08/26 01:25:03;;;;;;;29.73;27.67;;;;;;;;;;5092585;28;20436;-82
2022/08/26 01:27:32;;;;;;;31.60;29.33;;;;;;;;;;5092911;28;20790;-82
2022/08/26 01:30:00;;;;;;;31.10;28.60;;;;;;;;;;5092733;28;20444;-83
2022/08/26 01:32:28;;;;;;;31.13;28.50;;;;;;;;;;5092979;28;20408;-82
2022/08/26 01:34:56;;;;;;;29.53;27.13;;;;;;;;;;5092390;28;20491;-81
2022/08/26 01:37:25;;;;;;;29.47;27.20;;;;;;;;;;5092671;28;20461;-82
2022/08/26 01:39:54;;;;;;;30.53;27.97;;;;;;;;;;5092626;28;20437;-82
2022/08/26 01:42:23;;;;;;;30.17;27.30;;;;;;;;;;5092867;28;20448;-82
2022/08/26 01:44:53;;;;;;;30.80;28.20;;;;;;;;;;5092485;28;20937;-81
2022/08/26 01:47:21;;;;;;;30.90;28.20;;;;;;;;;;5092726;28;20430;-82
2022/08/26 01:49:50;;;;;;;31.03;28.83;;;;;;;;;;5092816;28;20772;-81
2022/08/26 01:52:21;;;;;;;32.17;29.40;;;;;;;;;;5092792;28;20491;-82
2022/08/26 01:54:48;;;;;;;33.40;31.00;;;;;;;;;;5092190;28;20496;-82
2022/08/26 01:57:16;;;;;;;30.93;28.73;;;;;;;;;;5091399;28;20464;-82
2022/08/26 01:59:46;;;;;;;29.67;27.50;;;;;;;;;;5092404;28;20419;-81
2022/08/26 02:02:13;;;;;;;32.20;29.20;;;;;;;;;;5092277;28;20441;-82
2022/08/26 02:04:46;;;;;;;34.07;30.40;;;;;;;;;;5095680;28;20459;-82
2022/08/26 02:07:15;;;;;;;33.10;29.83;;;;;;;;;;5096473;28;20502;-81
2022/08/26 02:09:43;;;;;;;29.90;27.50;;;;;;;;;;5094898;28;20441;-82
2022/08/26 02:12:11;;;;;;;32.20;29.27;;;;;;;;;;5096468;28;20443;-82
2022/08/26 02:14:40;;;;;;;31.30;28.40;;;;;;;;;;5096083;28;20499;-81
2022/08/26 02:17:10;;;;;;;32.63;30.00;;;;;;;;;;5095919;28;20443;-81
2022/08/26 02:19:42;;;;;;;29.40;27.10;;;;;;;;;;5095819;28;20427;-82
2022/08/26 02:22:12;;;;;;;32.10;29.27;;;;;;;;;;5095936;28;20900;-82
2022/08/26 02:24:47;;;;;;;31.70;29.20;;;;;;;;;;5095937;28;20404;-82
2022/08/26 02:27:15;;;;;;;32.10;29.83;;;;;;;;;;5095957;28;20995;-82
2022/08/26 02:29:44;;;;;;;34.27;31.27;;;;;;;;;;5095998;28;20427;-81
2022/08/26 02:32:13;;;;;;;31.83;29.03;;;;;;;;;;5095863;28;20426;-81
2022/08/26 02:34:40;;;;;;;30.67;28.37;;;;;;;;;;5095629;28;20456;-82
2022/08/26 02:37:08;;;;;;;32.87;30.43;;;;;;;;;;5095602;28;20412;-82
2022/08/26 02:39:37;;;;;;;30.40;28.00;;;;;;;;;;5095613;28;20490;-82
2022/08/26 02:42:05;;;;;;;30.03;27.60;;;;;;;;;;5095568;28;20789;-82
2022/08/26 02:44:33;;;;;;;30.67;28.17;;;;;;;;;;5095517;28;20429;-82
2022/08/26 02:47:00;;;;;;;30.50;28.00;;;;;;;;;;5095663;28;20428;-81
2022/08/26 02:49:29;;;;;;;33.33;30.17;;;;;;;;;;5095297;28;20423;-81
2022/08/26 02:51:59;;;;;;;31.70;28.80;;;;;;;;;;5094009;28;20424;-81
2022/08/26 02:54:27;;;;;;;31.70;29.27;;;;;;;;;;5095388;28;20464;-81
2022/08/26 02:56:54;;;;;;;32.33;29.77;;;;;;;;;;5095059;28;20475;-82
2022/08/26 02:59:22;;;;;;;31.00;28.43;;;;;;;;;;5095435;28;20427;-81
2022/08/26 03:01:49;;;;;;;32.30;29.77;;;;;;;;;;5095119;28;20459;-81
2022/08/26 03:04:17;;;;;;;32.77;29.67;;;;;;;;;;5095112;28;20462;-82
2022/08/26 03:06:45;;;;;;;33.67;30.73;;;;;;;;;;5095072;28;20424;-82
2022/08/26 03:09:13;;;;;;;31.80;29.13;;;;;;;;;;5095234;28;20448;-82
2022/08/26 03:11:40;;;;;;;31.77;28.87;;;;;;;;;;5094952;28;20432;-81
2022/08/26 03:14:07;;;;;;;32.40;29.97;;;;;;;;;;5094778;28;20437;-82
2022/08/26 03:16:36;;;;;;;32.03;29.30;;;;;;;;;;5094792;28;20521;-82
2022/08/26 03:19:04;;;;;;;31.33;28.80;;;;;;;;;;5095079;28;20748;-82
2022/08/26 03:21:31;;;;;;;33.77;31.07;;;;;;;;;;5095072;28;20437;-82
2022/08/26 03:24:01;;;;;;;31.40;28.67;;;;;;;;;;5094717;28;20438;-82
2022/08/26 03:26:28;;;;;;;32.10;29.57;;;;;;;;;;5094816;28;20469;-81
2022/08/26 03:31:41;;;;;;;33.03;30.27;;;;;;;;;;5094598;28;20386;-82
2022/08/26 03:34:09;;;;;;;31.33;28.80;;;;;;;;;;5094620;28;20428;-82
2022/08/26 03:36:36;;;;;;;31.83;29.10;;;;;;;;;;5094461;28;20583;-82
2022/08/26 03:39:05;;;;;;;35.50;32.60;;;;;;;;;;5094679;28;20448;-82
2022/08/26 03:41:34;;;;;;;33.27;30.37;;;;;;;;;;5094675;28;20524;-81
2022/08/26 03:44:02;;;;;;;36.10;32.87;;;;;;;;;;5093028;28;20457;-81
2022/08/26 03:46:31;;;;;;;33.17;30.10;;;;;;;;;;5093127;28;20436;-82
2022/08/26 03:48:59;;;;;;;35.10;31.73;;;;;;;;;;5094136;28;20434;-81
2022/08/26 03:51:26;;;;;;;32.23;29.80;;;;;;;;;;5094133;28;20420;-82
2022/08/26 03:53:54;;;;;;;33.13;30.33;;;;;;;;;;5094501;28;20430;-82
2022/08/26 03:56:23;;;;;;;31.60;29.50;;;;;;;;;;5094130;28;20520;-82
2022/08/26 03:58:51;;;;;;;34.33;30.90;;;;;;;;;;5094369;28;20415;-82
2022/08/26 04:01:18;;;;;;;32.87;30.27;;;;;;;;;;5093112;28;20440;-81
2022/08/26 04:03:58;;;;;;;31.90;28.93;;;;;;;;;;5093801;28;20453;-82
2022/08/26 04:06:25;;;;;;;32.53;30.00;;;;;;;;;;5094206;28;20437;-82
2022/08/26 04:08:54;;;;;;;31.43;28.97;;;;;;;;;;5094168;28;20447;-82
2022/08/26 04:11:25;;;;;;;34.87;31.17;;;;;;;;;;5094072;28;20483;-81
2022/08/26 04:13:53;;;;;;;33.50;30.80;;;;;;;;;;5093814;28;20897;-82
2022/08/26 04:16:20;;;;;;;31.77;29.67;;;;;;;;;;5093888;28;20447;-82
2022/08/26 04:18:47;;;;;;;33.47;30.67;;;;;;;;;;5093558;28;20770;-82
2022/08/26 04:21:15;;;;;;;31.37;28.83;;;;;;;;;;5093666;28;20412;-82
2022/08/26 04:23:42;;;;;;;32.80;29.97;;;;;;;;;;5093551;28;20421;-81
2022/08/26 04:26:09;;;;;;;32.90;30.33;;;;;;;;;;5092717;28;20436;-82
2022/08/26 04:28:38;;;;;;;33.57;30.77;;;;;;;;;;5093711;28;20466;-81
2022/08/26 04:31:09;;;;;;;32.83;30.20;;;;;;;;;;5093785;28;20442;-82
2022/08/26 04:33:36;;;;;;;33.53;30.80;;;;;;;;;;5093397;28;21242;-82
2022/08/26 04:36:05;;;;;;;33.33;30.60;;;;;;;;;;5093580;28;20499;-81
2022/08/26 04:38:33;;;;;;;33.77;30.67;;;;;;;;;;5093570;28;20424;-77
2022/08/26 04:41:02;;;;;;;34.07;30.90;;;;;;;;;;5093480;28;20419;-82
2022/08/26 04:43:29;;;;;;;34.43;31.47;;;;;;;;;;5093231;28;20456;-83
2022/08/26 04:45:58;;;;;;;34.97;31.77;;;;;;;;;;5093226;28;20448;-81
2022/08/26 04:48:27;;;;;;;35.57;32.47;;;;;;;;;;5093435;28;20795;-82
2022/08/26 04:50:54;;;;;;;36.03;32.53;;;;;;;;;;5093134;28;20490;-81
2022/08/26 04:53:22;;;;;;;33.40;30.67;;;;;;;;;;5093257;28;20507;-81
2022/08/26 04:55:49;;;;;;;34.07;31.17;;;;;;;;;;5092662;28;20885;-81
2022/08/26 04:58:17;;;;;;;33.27;30.43;;;;;;;;;;5093079;28;20492;-82
2022/08/26 05:00:45;;;;;;;33.10;30.60;;;;;;;;;;5091656;28;20954;-82
2022/08/26 05:03:14;;;;;;;34.47;31.67;;;;;;;;;;5093051;28;20813;-81
2022/08/26 05:05:42;;;;;;;36.07;32.53;;;;;;;;;;5092913;28;20430;-81
2022/08/26 05:08:10;;;;;;;34.07;31.33;;;;;;;;;;5093056;28;20411;-80
2022/08/26 05:10:39;;;;;;;33.17;30.27;;;;;;;;;;5093078;28;20454;-81
2022/08/26 05:13:07;;;;;;;31.90;29.50;;;;;;;;;;5092410;28;20434;-81
2022/08/26 05:15:34;;;;;;;33.37;30.57;;;;;;;;;;5092538;28;20919;-81
2022/08/26 05:18:02;;;;;;;33.40;30.30;;;;;;;;;;5092966;28;20426;-80
2022/08/26 05:20:32;;;;;;;33.57;30.97;;;;;;;;;;5092638;28;20429;-81
2022/08/26 05:23:00;;;;;;;34.87;31.43;;;;;;;;;;5092888;28;20443;-81
2022/08/26 05:25:28;;;;;;;33.93;30.90;;;;;;;;;;5092422;28;20495;-81
2022/08/26 05:27:55;;;;;;;35.10;32.13;;;;;;;;;;5093009;28;20418;-81
2022/08/26 05:30:22;;;;;;;33.57;31.17;;;;;;;;;;5092890;28;20414;-81
2022/08/26 05:32:50;;;;;;;35.50;32.30;;;;;;;;;;5092493;28;20407;-81
2022/08/26 05:35:18;;;;;;;35.03;32.13;;;;;;;;;;5092567;28;20916;-81
2022/08/26 05:37:46;;;;;;;34.53;31.70;;;;;;;;;;5094464;28;20892;-81
2022/08/26 05:40:14;;;;;;;32.73;30.23;;;;;;;;;;5096833;28;20759;-81
2022/08/26 05:42:42;;;;;;;33.23;30.73;;;;;;;;;;5096878;28;20449;-81
2022/08/26 05:45:09;;;;;;;34.10;31.60;;;;;;;;;;5095309;28;20908;-81
2022/08/26 05:47:36;;;;;;;35.77;32.83;;;;;;;;;;5096872;28;20419;-81
2022/08/26 05:50:04;;;;;;;34.83;31.90;;;;;;;;;;5096809;28;20440;-81
2022/08/26 05:52:32;;;;;;;33.83;30.83;;;;;;;;;;5096820;28;20422;-81
2022/08/26 05:55:01;;;;;;;33.13;30.37;;;;;;;;;;5096146;28;20476;-80
2022/08/26 05:57:28;;;;;;;35.23;32.33;;;;;;;;;;5096355;28;20479;-81
2022/08/26 05:59:57;;;;;;;34.53;31.33;;;;;;;;;;5096252;28;20465;-81
2022/08/26 06:02:24;;;;;;;34.13;31.57;;;;;;;;;;5096546;28;20448;-81
2022/08/26 06:04:52;;;;;;;33.93;30.50;;;;;;;;;;5096194;28;20467;-81
2022/08/26 06:08:09;;;;;;;32.70;29.93;;;;;;;;;;5096468;28;20411;-81
2022/08/26 06:10:08;;;;;;;34.67;31.50;;;;;;;;;;5095943;28;20423;-80
2022/08/26 06:12:36;;;;;;;33.87;30.90;;;;;;;;;;5096290;27;20471;-81
2022/08/26 06:15:03;;;;;;;33.70;30.90;;;;;;;;;;5094817;28;20480;-81
2022/08/26 06:17:31;;;;;;;32.23;29.87;;;;;;;;;;5096194;28;20462;-81
2022/08/26 06:19:59;;;;;;;33.57;30.57;;;;;;;;;;5095836;28;20945;-80
2022/08/26 06:25:39;;;;;;;32.43;29.83;;;;;;;;;;5033342;28;20524;-81
2022/08/26 06:28:07;;;;;;;34.63;31.37;;;;;;;;;;5033461;28;20452;-81
2022/08/26 06:30:34;;;;;;;34.53;31.60;;;;;;;;;;5033199;28;20413;-81
2022/08/26 06:33:01;;;;;;;34.43;31.20;;;;;;;;;;5033211;28;20975;-81
2022/08/26 06:35:29;;;;;;;33.47;31.07;;;;;;;;;;5033233;28;20421;-81
2022/08/26 06:37:56;;;;;;;31.87;29.57;;;;;;;;;;5033117;28;20458;-81
2022/08/26 06:40:25;;;;;;;32.23;29.73;;;;;;;;;;5016558;28;20463;-81
2022/08/26 06:42:52;;;;;;;33.80;31.47;;;;;;;;;;5033015;28;20440;-80
2022/08/26 06:45:20;;;;;;;32.63;30.33;;;;;;;;;;5033115;28;20410;-80
2022/08/26 06:47:47;;;;;;;33.97;31.43;;;;;;;;;;5032958;28;20950;-80
2022/08/26 06:50:15;;;;;;;33.70;31.17;;;;;;;;;;5032045;28;20798;-81
2022/08/26 06:52:42;;;;;;;31.43;29.00;;;;;;;;;;5032848;28;20870;-81
2022/08/26 06:55:10;;;;;;;33.23;30.73;;;;;;;;;;5016383;28;20574;-81
2022/08/26 06:57:39;;;;;;;33.47;30.83;;;;;;;;;;5032825;28;20449;-80
2022/08/26 07:00:07;;;;;;;34.53;31.83;;;;;;;;;;5072009;28;21090;-81
2022/08/26 07:02:35;;;;;;;33.83;31.33;;;;;;;;;;5095435;28;20420;-81
2022/08/26 07:05:02;;;;;;;35.43;32.60;;;;;;;;;;5094807;28;20455;-80
2022/08/26 07:07:29;;;;;;;35.23;32.33;;;;;;;;;;5094889;28;20463;-80
2022/08/26 07:09:57;;;;;;;36.50;33.60;;;;;;;;;;5094952;28;20440;-81
2022/08/26 07:12:24;;;;;;;36.40;33.13;;;;;;;;;;5095229;28;20791;-80
2022/08/26 07:14:53;;;;;;;35.03;32.13;;;;;;;;;;5094821;28;20445;-80
2022/08/26 07:17:21;;;;;;;35.10;32.00;;;;;;;;;;5094719;28;20979;-81
2022/08/26 07:19:48;;;;;;;36.47;33.20;;;;;;;;;;5095002;28;20441;-80
2022/08/26 07:22:16;;;;;;;36.57;33.77;;;;;;;;;;5094716;28;20798;-81
2022/08/26 07:24:44;;;;;;;36.50;33.60;;;;;;;;;;5094959;28;20512;-81
2022/08/26 07:27:12;;;;;;;34.10;31.60;;;;;;;;;;5095061;28;20842;-81
2022/08/26 07:29:41;;;;;;;37.10;33.73;;;;;;;;;;5094858;28;20439;-81
2022/08/26 07:32:10;;;;;;;34.60;32.00;;;;;;;;;;5094503;28;21223;-80
2022/08/26 07:34:38;;;;;;;34.90;32.20;;;;;;;;;;5094770;28;20736;-81
2022/08/26 07:37:05;;;;;;;36.80;33.80;;;;;;;;;;5094713;28;20850;-81
2022/08/26 07:39:33;;;;;;;36.87;33.87;;;;;;;;;;5094666;28;20437;-81
2022/08/26 07:42:01;;;;;;;37.07;34.10;;;;;;;;;;5094540;28;20429;-82
2022/08/26 07:44:28;;;;;;;39.07;35.67;;;;;;;;;;5093078;28;20427;-81
2022/08/26 07:46:55;;;;;;;338.50;314.90;;;;;;;;;;5094249;28;20459;-81
2022/08/26 07:49:25;;;;;;;542.17;488.87;;;;;;;;;;5094208;28;20797;-80
2022/08/26 07:51:53;;;;;;;37.47;34.50;;;;;;;;;;5094372;28;20473;-81
2022/08/26 07:54:22;;;;;;;37.93;34.70;;;;;;;;;;5094140;28;20844;-80
2022/08/26 07:56:49;;;;;;;38.37;35.27;;;;;;;;;;5094003;28;20493;-81
2022/08/26 07:59:17;;;;;;;36.93;34.00;;;;;;;;;;5093868;28;20433;-81
2022/08/26 08:01:44;;;;;;;40.97;37.20;;;;;;;;;;5093997;28;20841;-80
2022/08/26 08:04:12;;;;;;;472.27;432.77;;;;;;;;;;5093624;28;20815;-80
2022/08/26 08:06:42;;;;;;;534.90;480.47;;;;;;;;;;5094235;28;20441;-81
2022/08/26 08:09:09;;;;;;;524.23;470.07;;;;;;;;;;5094065;28;20562;-80
2022/08/26 08:11:36;;;;;;;572.50;517.20;;;;;;;;;;5094140;28;20444;-80
2022/08/26 08:14:04;;;;;;;568.60;513.50;;;;;;;;;;5093745;28;20444;-81
2022/08/26 08:16:31;;;;;;;582.40;528.80;;;;;;;;;;5093950;28;20856;-81
2022/08/26 08:18:59;;;;;;;563.20;508.00;;;;;;;;;;5093591;28;20486;-81
2022/08/26 08:21:26;;;;;;;533.13;478.53;;;;;;;;;;5093865;28;20448;-81
2022/08/26 08:23:56;;;;;;;525.60;471.17;;;;;;;;;;5093953;28;20438;-81
2022/08/26 08:26:24;;;;;;;523.73;471.03;;;;;;;;;;5093692;28;20441;-81
2022/08/26 08:28:54;;;;;;;519.63;467.33;;;;;;;;;;5093691;28;20480;-81
2022/08/26 08:31:22;;;;;;;543.60;490.17;;;;;;;;;;5093745;28;20444;-81
2022/08/26 08:33:49;;;;;;;573.83;518.87;;;;;;;;;;5093251;28;21100;-81
2022/08/26 08:36:16;;;;;;;576.27;525.87;;;;;;;;;;5093615;28;20445;-79
2022/08/26 08:38:44;;;;;;;598.10;542.63;;;;;;;;;;5093412;28;20574;-81
2022/08/26 08:41:27;;;;;;;607.03;550.53;;;;;;;;;;5093596;28;20768;-81
2022/08/26 08:43:55;;;;;;;599.13;545.97;;;;;;;;;;5093510;28;20429;-81
2022/08/26 08:46:23;;;;;;;589.13;536.73;;;;;;;;;;5093448;28;20465;-81
2022/08/26 08:48:55;;;;;;;466.70;431.10;;;;;;;;;;5093290;28;20469;-80
2022/08/26 08:51:27;;;;;;;489.47;444.23;;;;;;;;;;5093460;28;20510;-81
2022/08/26 08:53:55;;;;;;;519.70;474.03;;;;;;;;;;5093374;28;20471;-81
2022/08/26 08:56:28;;;;;;;42.07;38.57;;;;;;;;;;5093091;28;20791;-81
2022/08/26 08:58:59;;;;;;;44.83;41.23;;;;;;;;;;5093171;28;20418;-81
2022/08/26 09:01:33;;;;;;;40.80;37.13;;;;;;;;;;5092975;28;20438;-80
2022/08/26 09:04:11;;;;;;;42.90;39.13;;;;;;;;;;5092593;28;20484;-80
2022/08/26 09:06:39;;;;;;;42.43;39.23;;;;;;;;;;5093159;28;20471;-80
2022/08/26 09:09:07;;;;;;;45.80;41.90;;;;;;;;;;5092830;28;21136;-80
2022/08/26 09:11:36;;;;;;;44.50;40.70;;;;;;;;;;5092733;28;20431;-81
2022/08/26 09:14:03;;;;;;;41.40;38.10;;;;;;;;;;5092892;28;20462;-80
2022/08/26 09:16:34;;;;;;;43.80;40.20;;;;;;;;;;5092691;28;20448;-80
2022/08/26 09:19:11;;;;;;;44.03;40.40;;;;;;;;;;5092710;28;20474;-80
2022/08/26 09:21:38;;;;;;;46.53;42.43;;;;;;;;;;5092991;28;20466;-80
2022/08/26 09:24:06;;;;;;;44.93;41.00;;;;;;;;;;5093041;28;20440;-80
2022/08/26 09:26:44;;;;;;;45.77;42.03;;;;;;;;;;5092817;28;20400;-80
2022/08/26 09:29:19;;;;;;;46.43;42.70;;;;;;;;;;5092919;28;20500;-80
2022/08/26 09:31:47;;;;;;;47.00;43.07;;;;;;;;;;5092900;28;20442;-80
2022/08/26 09:34:15;;;;;;;46.63;42.73;;;;;;;;;;5092682;28;20434;-81
2022/08/26 09:36:43;;;;;;;46.63;42.73;;;;;;;;;;5092463;28;20443;-80
2022/08/26 09:39:28;;;;;;;46.73;42.70;;;;;;;;;;5092534;28;20446;-80
2022/08/26 09:42:05;;;;;;;47.00;43.10;;;;;;;;;;5092623;28;20408;-80
2022/08/26 09:44:33;;;;;;;45.33;41.60;;;;;;;;;;5092453;28;20440;-80
2022/08/26 09:47:02;;;;;;;46.77;42.63;;;;;;;;;;5092456;28;20439;-80
2022/08/26 09:49:32;;;;;;;44.20;40.43;;;;;;;;;;5092630;28;20445;-80
2022/08/26 09:52:18;;;;;;;46.33;42.50;;;;;;;;;;5092590;28;20432;-80
2022/08/26 09:54:45;;;;;;;43.93;40.00;;;;;;;;;;5092307;28;20404;-80
2022/08/26 09:57:17;;;;;;;46.00;42.00;;;;;;;;;;5092422;28;20455;-81
2022/08/26 09:59:44;;;;;;;46.50;42.70;;;;;;;;;;5092156;28;20411;-81
2022/08/26 10:02:35;;;;;;;47.80;43.73;;;;;;;;;;5092428;28;20806;-80
2022/08/26 10:05:05;;;;;;;45.17;41.07;;;;;;;;;;5091881;28;20510;-80
2022/08/26 10:07:39;;;;;;;45.70;42.00;;;;;;;;;;5092349;28;20442;-80
2022/08/26 10:10:08;;;;;;;48.37;44.37;;;;;;;;;;5092369;28;20526;-81
2022/08/26 10:12:38;;;;;;;48.07;43.80;;;;;;;;;;5092564;28;20420;-80
2022/08/26 10:15:09;;;;;;;45.80;42.23;;;;;;;;;;5092271;28;20441;-81
2022/08/26 10:17:38;;;;;;;46.67;42.47;;;;;;;;;;5092172;28;20488;-80
2022/08/26 10:20:08;;;;;;;48.17;44.20;;;;;;;;;;5092407;28;20442;-81
2022/08/26 10:22:40;;;;;;;47.20;43.13;;;;;;;;;;5092520;28;20409;-81
2022/08/26 10:25:09;;;;;;;47.53;43.07;;;;;;;;;;5094407;28;20434;-80
2022/08/26 10:27:42;;;;;;;46.90;42.87;;;;;;;;;;5095688;28;20862;-81
2022/08/26 10:30:11;;;;;;;48.40;44.30;;;;;;;;;;5095726;28;20426;-80
2022/08/26 10:32:41;;;;;;;47.87;43.83;;;;;;;;;;5095695;28;20438;-80
2022/08/26 10:35:10;;;;;;;45.80;42.10;;;;;;;;;;5095702;28;20421;-79
2022/08/26 10:37:39;;;;;;;46.73;42.23;;;;;;;;;;5095837;28;20518;-80
2022/08/26 10:40:09;;;;;;;46.10;42.30;;;;;;;;;;5095855;28;20424;-80
2022/08/26 10:42:37;;;;;;;47.30;43.60;;;;;;;;;;5095570;28;20795;-81
2022/08/26 10:45:08;;;;;;;47.10;43.30;;;;;;;;;;5095768;28;20417;-81
2022/08/26 10:47:39;;;;;;;44.37;40.93;;;;;;;;;;5095755;28;20445;-81
2022/08/26 10:50:06;;;;;;;46.43;42.53;;;;;;;;;;5095334;28;20443;-80
2022/08/26 10:52:38;;;;;;;46.87;42.97;;;;;;;;;;5095647;28;20500;-81
2022/08/26 10:55:12;;;;;;;46.10;42.40;;;;;;;;;;5095221;28;20483;-80
2022/08/26 10:57:43;;;;;;;45.30;41.50;;;;;;;;;;5095443;28;20472;-80
2022/08/26 11:03:03;;;;;;;46.50;42.60;;;;;;;;;;5094958;28;20552;-80
2022/08/26 11:05:30;;;;;;;49.77;45.27;;;;;;;;;;5095410;28;20461;-80
2022/08/26 11:08:12;;;;;;;48.63;44.03;;;;;;;;;;5095026;28;20917;-80
2022/08/26 11:11:04;;;;;;;48.70;44.40;;;;;;;;;;5094772;28;20459;-79
2022/08/26 11:13:50;;;;;;;52.87;48.13;;;;;;;;;;5095239;28;20414;-80
2022/08/26 11:16:32;;;;;;;55.00;49.80;;;;;;;;;;5095029;28;20452;-80
2022/08/26 11:18:59;;;;;;;52.83;47.60;;;;;;;;;;5094661;28;20982;-80
2022/08/26 11:21:47;;;;;;;50.07;44.67;;;;;;;;;;5094885;28;20412;-80
2022/08/26 11:24:33;;;;;;;48.70;44.10;;;;;;;;;;5094726;28;20438;-80
2022/08/26 11:27:00;;;;;;;49.10;44.80;;;;;;;;;;5094614;28;20435;-80
2022/08/26 11:29:58;;;;;;;50.80;46.10;;;;;;;;;;5094503;28;20444;-80
2022/08/26 11:32:28;;;;;;;52.37;47.20;;;;;;;;;;5094898;28;20443;-80
2022/08/26 11:34:56;;;;;;;52.40;47.80;;;;;;;;;;5094549;28;20430;-81
2022/08/26 11:37:28;;;;;;;49.23;44.63;;;;;;;;;;5094747;28;20426;-80
2022/08/26 11:39:56;;;;;;;52.50;47.93;;;;;;;;;;5094638;28;20439;-80
2022/08/26 11:42:28;;;;;;;48.80;43.90;;;;;;;;;;5094649;28;20406;-80
2022/08/26 11:44:56;;;;;;;47.93;43.63;;;;;;;;;;5094352;28;20781;-80
2022/08/26 11:47:36;;;;;;;48.97;44.73;;;;;;;;;;5094418;28;20471;-80
2022/08/26 11:50:11;;;;;;;47.90;43.60;;;;;;;;;;5094254;28;20526;-80
2022/08/26 11:52:38;;;;;;;50.13;45.53;;;;;;;;;;5094231;28;20822;-80
2022/08/26 11:55:08;;;;;;;51.20;47.00;;;;;;;;;;5093970;28;20556;-80
2022/08/26 11:57:37;;;;;;;56.33;46.20;;;;;;;;;;5094337;28;20407;-80
2022/08/26 12:00:05;;;;;;;50.03;45.50;;;;;;;;;;5094069;28;20442;-80
2022/08/26 12:02:34;;;;;;;49.37;44.93;;;;;;;;;;5094331;28;20442;-80
2022/08/26 12:05:02;;;;;;;50.83;46.50;;;;;;;;;;5093789;28;20970;-80
2022/08/26 12:07:30;;;;;;;547.50;502.30;;;;;;;;;;5094198;28;20430;-80
2022/08/26 12:09:58;;;;;;;771.47;712.17;;;;;;;;;;5094193;28;20835;-80
2022/08/26 12:12:29;;;;;;;730.33;678.37;;;;;;;;;;5093765;28;20440;-80
2022/08/26 12:15:23;;;;;;;768.70;708.40;;;;;;;;;;5094050;28;20927;-80
2022/08/26 12:17:52;;;;;;;750.50;690.03;;;;;;;;;;5031118;28;20490;-80
2022/08/26 12:20:21;;;;;;;683.00;623.83;;;;;;;;;;5031184;28;20561;-80
2022/08/26 12:22:48;;;;;;;737.97;676.80;;;;;;;;;;5031322;28;20652;-80
2022/08/26 12:25:22;;;;;;;748.90;687.13;;;;;;;;;;5031192;28;20439;-80
2022/08/26 12:27:50;;;;;;;757.60;696.60;;;;;;;;;;5031014;28;20466;-80
2022/08/26 12:30:20;;;;;;;722.13;661.67;;;;;;;;;;5031183;28;20440;-80
2022/08/26 12:32:48;;;;;;;757.03;695.13;;;;;;;;;;5031066;28;20533;-80
2022/08/26 12:35:18;;;;;;;718.87;657.80;;;;;;;;;;5031024;28;20449;-80
2022/08/26 12:37:47;;;;;;;764.07;701.37;;;;;;;;;;5030843;28;20438;-80
2022/08/26 12:40:34;;;;;;;735.00;674.60;;;;;;;;;;5030960;28;20976;-81
2022/08/26 12:43:03;;;;;;;772.00;709.00;;;;;;;;;;5030924;28;20443;-80
2022/08/26 12:45:31;;;;;;;760.90;698.40;;;;;;;;;;5030876;28;20420;-80
2022/08/26 12:48:00;;;;;;;760.27;698.20;;;;;;;;;;5029988;28;20463;-80
2022/08/26 12:50:30;;;;;;;771.93;713.70;;;;;;;;;;5030872;28;20447;-79
2022/08/26 12:53:00;;;;;;;739.97;686.27;;;;;;;;;;5045336;28;20447;-81
2022/08/26 12:55:35;;;;;;;786.70;726.20;;;;;;;;;;5093197;28;20469;-80
2022/08/26 12:58:21;;;;;;;749.63;691.23;;;;;;;;;;5092838;28;20479;-80
2022/08/26 13:00:50;;;;;;;760.43;702.67;;;;;;;;;;5092887;28;20446;-80
2022/08/26 13:03:36;;;;;;;740.30;682.40;;;;;;;;;;5092953;28;20468;-80
2022/08/26 13:06:20;;;;;;;727.93;674.43;;;;;;;;;;5093117;28;20438;-80
2022/08/26 13:08:50;;;;;;;729.73;675.47;;;;;;;;;;5090598;28;20463;-80
2022/08/26 13:11:19;;;;;;;773.67;713.73;;;;;;;;;;5091268;28;20941;-80
2022/08/26 13:13:47;;;;;;;801.70;742.10;;;;;;;;;;5093154;28;20796;-80
2022/08/26 13:16:15;;;;;;;773.40;715.63;;;;;;;;;;5092792;28;20434;-80
2022/08/26 13:18:42;;;;;;;736.77;687.23;;;;;;;;;;5092919;28;20578;-80
2022/08/26 13:21:12;;;;;;;803.47;749.10;;;;;;;;;;5092790;28;20447;-80
2022/08/26 13:23:39;;;;;;;820.00;761.53;;;;;;;;;;5092649;28;20844;-80
2022/08/26 13:26:08;;;;;;;745.77;696.60;;;;;;;;;;5092823;28;20491;-80
2022/08/26 13:28:36;;;;;;;702.90;656.63;;;;;;;;;;5092570;28;20906;-81
2022/08/26 13:31:04;;;;;;;718.27;668.67;;;;;;;;;;5092559;28;20443;-80
2022/08/26 13:33:31;;;;;;;751.50;703.73;;;;;;;;;;5092417;28;20549;-80
2022/08/26 13:35:59;;;;;;;718.87;666.73;;;;;;;;;;5092860;28;20444;-80
2022/08/26 13:38:26;;;;;;;721.07;675.40;;;;;;;;;;5092651;28;20503;-80
2022/08/26 13:40:54;;;;;;;689.87;644.10;;;;;;;;;;5092435;28;20933;-80
2022/08/26 13:43:23;;;;;;;751.53;697.50;;;;;;;;;;5092779;28;21011;-81
2022/08/26 13:45:50;;;;;;;720.30;671.23;;;;;;;;;;5092745;28;20444;-80
2022/08/26 13:48:18;;;;;;;784.63;734.87;;;;;;;;;;5092407;28;20790;-80
2022/08/26 13:50:45;;;;;;;861.70;800.90;;;;;;;;;;5092435;28;20911;-80
2022/08/26 13:53:13;;;;;;;796.80;737.73;;;;;;;;;;5092382;28;20866;-80
2022/08/26 13:55:41;;;;;;;796.43;741.87;;;;;;;;;;5092470;28;20526;-80
2022/08/26 13:58:08;;;;;;;750.67;702.80;;;;;;;;;;5093222;28;20787;-81
2022/08/26 14:00:38;;;;;;;791.33;737.37;;;;;;;;;;5096414;28;20437;-80
2022/08/26 14:03:05;;;;;;;847.00;787.53;;;;;;;;;;5096347;28;20439;-80
2022/08/26 14:05:33;;;;;;;791.60;742.40;;;;;;;;;;5096501;28;20441;-80
2022/08/26 14:08:00;;;;;;;786.30;735.10;;;;;;;;;;5094933;28;20846;-80
2022/08/26 14:10:28;;;;;;;778.60;727.40;;;;;;;;;;5096008;28;20442;-80
2022/08/26 14:12:55;;;;;;;793.07;741.03;;;;;;;;;;5096403;28;20436;-80
2022/08/26 14:15:22;;;;;;;798.60;747.17;;;;;;;;;;5096296;28;20471;-80
2022/08/26 14:17:51;;;;;;;751.43;701.53;;;;;;;;;;5096169;28;20457;-79
2022/08/26 14:20:21;;;;;;;409.50;390.57;;;;;;;;;;5095848;28;20480;-80
2022/08/26 14:22:48;;;;;;;745.30;704.53;;;;;;;;;;5096243;28;20415;-80
2022/08/26 14:25:16;;;;;;;632.30;601.23;;;;;;;;;;5095706;28;20991;-80
2022/08/26 14:27:43;;;;;;;799.97;754.40;;;;;;;;;;5096069;28;20783;-81
2022/08/26 14:30:11;;;;;;;823.07;776.67;;;;;;;;;;5095758;28;20908;-80
2022/08/26 14:32:39;;;;;;;646.17;612.90;;;;;;;;;;5095762;28;20789;-81